Time;durP1;ratioP1;P1;durP2;ratioP2;P2;SDS_P1;SDS_P2;PMS_P1;PMS_P2;Temp;Humidity;BMP_temperature;BMP_pressure;BME280_temperature;BME280_humidity;BME280_pressure;Samples;Min_cycle;Max_cycle;Signal;HPM_P1;HPM_P2
2023/02/06 00:00:31;;;;;;;;;;;;;;;19.72;31.11;102007.05;105191;1292;61018;-80
2023/02/06 00:02:57;;;;;;;;;;;;;;;19.72;31.12;102009.20;105252;1297;61363;-80
2023/02/06 00:05:23;;;;;;;;;;;;;;;19.73;30.96;102010.23;105385;1285;61296;-80
2023/02/06 00:07:48;;;;;;;;;;;;;;;19.72;31.05;102007.41;105750;1285;61361;-80
2023/02/06 00:10:14;;;;;;;;;;;;;;;19.72;31.00;102010.29;105674;1286;73519;-81
2023/02/06 00:12:39;;;;;;;;;;;;;;;19.72;31.07;102012.44;105725;1286;61290;-81
2023/02/06 00:15:05;;;;;;;;;;;;;;;19.71;30.88;102013.16;105649;1285;61308;-81
2023/02/06 00:17:33;;;;;;;;;;;;;;;19.71;30.96;102014.08;105909;1285;59322;-80
2023/02/06 00:19:59;;;;;;;;;;;;;;;19.70;30.88;102018.20;105738;1285;60063;-80
2023/02/06 00:22:25;;;;;;;;;;;;;;;19.70;30.94;102021.60;105725;1286;61359;-81
2023/02/06 00:24:50;;;;;;;;;;;;;;;19.70;30.86;102024.13;105845;1286;61218;-81
2023/02/06 00:27:16;;;;;;;;;;;;;;;19.69;30.84;102027.36;105761;1286;61964;-81
2023/02/06 00:29:41;;;;;;;;;;;;;;;19.70;30.86;102028.59;105773;1285;61341;-81
2023/02/06 00:32:07;;;;;;;;;;;;;;;19.69;30.91;102026.84;105752;1286;61397;-81
2023/02/06 00:34:32;;;;;;;;;;;;;;;19.69;30.80;102030.42;105897;1285;61299;-81
2023/02/06 00:36:58;;;;;;;;;;;;;;;19.69;30.91;102026.85;105758;1291;61241;-81
2023/02/06 00:39:24;;;;;;;;;;;;;;;19.68;30.70;102023.84;105665;1285;61239;-81
2023/02/06 00:41:50;;;;;;;;;;;;;;;19.69;30.94;102025.25;105783;1290;61243;-80
2023/02/06 00:44:15;;;;;;;;;;;;;;;19.68;30.97;102022.94;105923;1285;61793;-80
2023/02/06 00:46:41;;;;;;;;;;;;;;;19.69;30.85;102028.29;105713;1285;74483;-81
2023/02/06 00:49:07;;;;;;;;;;;;;;;19.68;30.86;102024.92;105762;1285;61293;-81
2023/02/06 00:51:35;;;;;;;;;;;;;;;19.68;30.81;102029.20;105890;1291;61346;-81
2023/02/06 00:54:00;;;;;;;;;;;;;;;19.69;30.85;102026.87;105742;1286;61289;-81
2023/02/06 00:56:26;;;;;;;;;;;;;;;19.68;30.89;102030.64;105734;1291;61397;-81
2023/02/06 00:58:51;;;;;;;;;;;;;;;19.68;30.96;102031.02;105759;1285;61298;-81
2023/02/06 01:01:17;;;;;;;;;;;;;;;19.68;30.85;102030.63;105894;1286;61166;-81
2023/02/06 01:03:43;;;;;;;;;;;;;;;19.68;30.88;102031.89;105747;1286;61353;-81
2023/02/06 01:06:09;;;;;;;;;;;;;;;19.68;30.80;102031.55;105767;1285;61270;-81
2023/02/06 01:08:34;;;;;;;;;;;;;;;19.68;30.82;102031.91;105754;1286;61316;-81
2023/02/06 01:10:59;;;;;;;;;;;;;;;19.68;30.99;102033.35;105738;1286;61353;-81
2023/02/06 01:13:25;;;;;;;;;;;;;;;19.67;30.90;102026.05;105588;1286;61373;-81
2023/02/06 01:15:50;;;;;;;;;;;;;;;19.67;30.84;102026.77;105662;1286;61285;-80
2023/02/06 01:18:16;;;;;;;;;;;;;;;19.68;30.81;102027.44;105639;1286;59969;-80
2023/02/06 01:20:41;;;;;;;;;;;;;;;19.67;30.89;102029.80;105731;1286;61369;-80
2023/02/06 01:23:07;;;;;;;;;;;;;;;19.67;30.99;102029.80;105619;1285;61341;-80
2023/02/06 01:25:33;;;;;;;;;;;;;;;19.67;30.81;102025.34;105776;1285;61288;-80
2023/02/06 01:27:58;;;;;;;;;;;;;;;19.67;30.89;102031.05;105744;1285;61704;-80
2023/02/06 01:30:24;;;;;;;;;;;;;;;19.67;30.73;102032.83;105644;1285;61311;-80
2023/02/06 01:32:49;;;;;;;;;;;;;;;19.67;30.92;102034.96;105749;1286;74673;-80
2023/02/06 01:35:15;;;;;;;;;;;;;;;19.67;30.82;102034.61;105744;1286;61273;-80
2023/02/06 01:37:40;;;;;;;;;;;;;;;19.67;30.79;102028.21;105676;1287;61273;-80
2023/02/06 01:40:07;;;;;;;;;;;;;;;19.67;30.86;102026.23;105729;1286;61494;-80
2023/02/06 01:42:33;;;;;;;;;;;;;;;19.67;30.70;102028.23;105889;1291;61231;-80
2023/02/06 01:45:34;;;;;;;;;;;;;;;19.66;30.85;102025.89;105866;1286;61266;-80
2023/02/06 01:48:02;;;;;;;;;;;;;;;19.67;30.84;102025.87;105390;1292;61294;-80
2023/02/06 01:50:28;;;;;;;;;;;;;;;19.66;30.85;102022.14;105327;1292;73434;-80
2023/02/06 01:52:54;;;;;;;;;;;;;;;19.66;30.81;102024.98;105286;1292;61302;-80
2023/02/06 01:55:19;;;;;;;;;;;;;;;19.67;30.86;102017.13;105319;1292;60035;-80
2023/02/06 01:57:45;;;;;;;;;;;;;;;19.67;30.70;102020.34;105303;1293;61426;-80
2023/02/06 02:00:11;;;;;;;;;;;;;;;19.67;30.81;102021.42;105314;1292;61505;-80
2023/02/06 02:02:38;;;;;;;;;;;;;;;19.67;30.88;102025.36;105176;1296;61400;-80
2023/02/06 02:05:04;;;;;;;;;;;;;;;19.66;30.75;102021.63;105049;1293;61660;-80
2023/02/06 02:07:37;;;;;;;;;;;;;;;19.66;30.78;102023.06;105112;1292;61354;-80
2023/02/06 02:10:02;;;;;;;;;;;;;;;19.66;30.94;102024.48;105073;1292;73233;-80
2023/02/06 02:12:28;;;;;;;;;;;;;;;19.66;30.77;102026.83;105190;1294;61815;-80
2023/02/06 02:14:54;;;;;;;;;;;;;;;19.66;30.80;102023.23;105076;1294;60229;-80
2023/02/06 02:17:34;;;;;;;;;;;;;;;19.66;30.83;102021.83;105083;1295;61364;-80
2023/02/06 02:20:18;;;;;;;;;;;;;;;19.66;30.73;102022.89;105181;1292;73878;-80
2023/02/06 02:22:59;;;;;;;;;;;;;;;19.65;30.70;102022.58;105460;1289;74457;-80
2023/02/06 02:25:43;;;;;;;;;;;;;;;19.65;30.82;102022.94;105449;1289;61255;-80
2023/02/06 02:28:18;;;;;;;;;;;;;;;19.65;30.77;102023.13;105513;1293;61364;-80
2023/02/06 02:30:50;;;;;;;;;;;;;;;19.65;30.69;102021.32;105606;1291;72431;-80
2023/02/06 02:33:30;;;;;;;;;;;;;;;19.65;30.70;102023.10;105501;1291;74518;-80
2023/02/06 02:35:59;;;;;;;;;;;;;;;19.66;30.82;102029.52;105609;1289;61320;-80
2023/02/06 02:38:35;;;;;;;;;;;;;;;19.65;30.79;102027.56;105641;1288;61434;-80
2023/02/06 02:41:00;;;;;;;;;;;;;;;19.65;30.76;102033.10;105811;1286;72323;-80
2023/02/06 02:43:28;;;;;;;;;;;;;;;19.65;30.88;102035.61;105944;1289;61361;-80
2023/02/06 02:46:15;;;;;;;;;;;;;;;19.65;30.89;102036.33;105865;1286;59306;-80
2023/02/06 02:48:41;;;;;;;;;;;;;;;19.65;30.77;102036.69;106002;1291;61163;-80
2023/02/06 02:51:07;;;;;;;;;;;;;;;19.65;30.72;102035.77;105832;1290;61132;-80
2023/02/06 02:53:32;;;;;;;;;;;;;;;19.66;30.85;102035.39;105844;1286;61330;-80
2023/02/06 02:55:59;;;;;;;;;;;;;;;19.66;30.76;102033.96;105879;1286;61310;-80
2023/02/06 02:58:26;;;;;;;;;;;;;;;19.66;30.67;102035.54;105838;1286;61188;-81
2023/02/06 03:00:56;;;;;;;;;;;;;;;19.65;30.78;102030.95;105848;1287;61224;-81
2023/02/06 03:03:22;;;;;;;;;;;;;;;19.66;30.88;102035.39;105853;1285;75226;-80
2023/02/06 03:06:08;;;;;;;;;;;;;;;19.66;30.84;102037.17;105881;1286;61256;-80
2023/02/06 03:08:37;;;;;;;;;;;;;;;19.66;30.88;102032.17;105844;1286;61176;-81
2023/02/06 03:11:13;;;;;;;;;;;;;;;19.66;30.76;102033.08;105843;1291;72379;-81
2023/02/06 03:13:43;;;;;;;;;;;;;;;19.66;30.83;102038.08;105924;1285;75302;-81
2023/02/06 03:16:30;;;;;;;;;;;;;;;19.65;30.71;102038.45;105921;1286;61307;-81
2023/02/06 03:18:57;;;;;;;;;;;;;;;19.65;30.75;102041.48;105947;1286;61263;-80
2023/02/06 03:21:23;;;;;;;;;;;;;;;19.66;30.85;102042.18;105947;1286;72589;-80
2023/02/06 03:23:52;;;;;;;;;;;;;;;19.65;30.71;102042.21;105911;1287;61770;-80
2023/02/06 03:26:19;;;;;;;;;;;;;;;19.65;30.73;102043.80;105940;1285;61093;-80
2023/02/06 03:28:52;;;;;;;;;;;;;;;19.65;30.78;102037.39;105864;1286;61225;-80
2023/02/06 03:31:19;;;;;;;;;;;;;;;19.65;30.81;102033.65;105866;1286;72273;-80
2023/02/06 03:33:51;;;;;;;;;;;;;;;19.65;30.75;102035.05;105926;1289;74296;-80
2023/02/06 03:36:17;;;;;;;;;;;;;;;19.65;30.66;102041.86;105945;1286;61289;-80
2023/02/06 03:38:44;;;;;;;;;;;;;;;19.64;30.73;102037.41;105945;1285;61256;-80
2023/02/06 03:41:33;;;;;;;;;;;;;;;19.65;30.73;102037.23;105869;1286;73517;-80
2023/02/06 03:43:59;;;;;;;;;;;;;;;19.64;30.75;102037.63;105288;1291;74532;-80
2023/02/06 03:46:24;;;;;;;;;;;;;;;19.64;30.73;102039.20;105132;1293;61443;-80
2023/02/06 03:48:51;;;;;;;;;;;;;;;19.64;30.74;102038.85;105172;1293;61307;-80
2023/02/06 03:51:17;;;;;;;;;;;;;;;19.64;30.79;102037.79;105124;1292;61272;-80
2023/02/06 03:53:43;;;;;;;;;;;;;;;19.64;30.75;102038.67;105051;1299;61369;-80
2023/02/06 03:56:09;;;;;;;;;;;;;;;19.64;30.79;102041.16;105307;1294;61372;-80
2023/02/06 03:58:35;;;;;;;;;;;;;;;19.64;30.73;102040.98;105171;1291;61537;-80
2023/02/06 04:01:01;;;;;;;;;;;;;;;19.64;30.83;102042.79;105144;1293;61181;-80
2023/02/06 04:03:27;;;;;;;;;;;;;;;19.64;30.82;102041.90;105208;1297;61371;-81
2023/02/06 04:05:52;;;;;;;;;;;;;;;19.64;30.73;102048.86;105163;1292;74483;-81
2023/02/06 04:08:17;;;;;;;;;;;;;;;19.64;30.71;102051.55;105145;1292;61317;-80
2023/02/06 04:10:43;;;;;;;;;;;;;;;19.64;30.74;102051.90;105183;1292;61230;-80
2023/02/06 04:13:08;;;;;;;;;;;;;;;19.64;30.71;102057.64;105136;1292;61454;-80
2023/02/06 04:15:34;;;;;;;;;;;;;;;19.63;30.69;102056.40;105311;1293;61432;-80
2023/02/06 04:17:59;;;;;;;;;;;;;;;19.63;30.66;102054.81;105165;1292;61297;-80
2023/02/06 04:20:25;;;;;;;;;;;;;;;19.63;30.71;102056.58;105181;1292;61330;-80
2023/02/06 04:22:50;;;;;;;;;;;;;;;19.63;30.68;102055.49;105679;1286;61333;-80
2023/02/06 04:25:16;;;;;;;;;;;;;;;19.63;30.75;102056.78;105838;1289;61339;-80
2023/02/06 04:27:41;;;;;;;;;;;;;;;19.62;30.76;102058.05;105905;1286;61292;-80
2023/02/06 04:30:07;;;;;;;;;;;;;;;19.63;30.75;102067.48;105860;1289;74505;-80
2023/02/06 04:32:33;;;;;;;;;;;;;;;19.63;30.72;102073.04;105867;1286;61473;-80
2023/02/06 04:34:58;;;;;;;;;;;;;;;19.62;30.68;102068.41;105933;1285;61278;-80
2023/02/06 04:37:24;;;;;;;;;;;;;;;19.62;30.63;102070.73;105869;1286;62725;-80
2023/02/06 04:39:49;;;;;;;;;;;;;;;19.62;30.71;102066.47;105703;1291;61286;-80
2023/02/06 04:42:15;;;;;;;;;;;;;;;19.61;30.64;102068.46;105895;1286;61374;-80
2023/02/06 04:44:40;;;;;;;;;;;;;;;19.61;30.55;102067.56;105705;1289;61252;-80
2023/02/06 04:47:06;;;;;;;;;;;;;;;19.61;30.64;102073.29;105865;1286;61295;-80
2023/02/06 04:49:32;;;;;;;;;;;;;;;19.60;30.70;102079.73;105703;1291;61278;-80
2023/02/06 04:51:57;;;;;;;;;;;;;;;19.60;30.56;102082.23;105942;1286;61806;-80
2023/02/06 04:54:23;;;;;;;;;;;;;;;19.60;30.58;102081.35;105896;1286;61365;-80
2023/02/06 04:56:48;;;;;;;;;;;;;;;19.61;30.55;102082.41;105860;1286;61352;-80
2023/02/06 04:59:15;;;;;;;;;;;;;;;19.60;30.50;102083.85;105972;1286;61256;-80
2023/02/06 05:01:40;;;;;;;;;;;;;;;19.61;30.50;102086.69;105958;1288;61290;-81
2023/02/06 05:04:06;;;;;;;;;;;;;;;19.60;30.64;102088.48;105852;1289;61358;-81
2023/02/06 05:06:31;;;;;;;;;;;;;;;19.60;30.52;102089.38;105878;1286;61716;-81
2023/02/06 05:08:57;;;;;;;;;;;;;;;19.60;30.65;102091.52;105902;1284;61307;-81
2023/02/06 05:11:23;;;;;;;;;;;;;;;19.60;30.52;102090.11;105914;1286;61300;-81
2023/02/06 05:13:49;;;;;;;;;;;;;;;19.60;30.44;102097.42;105918;1286;61360;-80
2023/02/06 05:16:14;;;;;;;;;;;;;;;19.59;30.53;102099.94;105868;1286;61370;-82
2023/02/06 05:18:40;;;;;;;;;;;;;;;19.59;30.36;102101.40;105967;1286;61263;-81
2023/02/06 05:21:06;;;;;;;;;;;;;;;19.57;30.52;102100.59;105884;1286;61326;-81
2023/02/06 05:23:33;;;;;;;;;;;;;;;19.55;30.39;102099.98;105726;1286;61281;-81
2023/02/06 05:25:58;;;;;;;;;;;;;;;19.54;30.22;102109.12;105975;1286;73207;-81
2023/02/06 05:28:24;;;;;;;;;;;;;;;19.53;30.23;102110.40;105888;1286;61224;-81
2023/02/06 05:30:49;;;;;;;;;;;;;;;19.52;30.22;102114.77;105873;1285;61294;-81
2023/02/06 05:33:15;;;;;;;;;;;;;;;19.50;30.21;102114.86;105875;1286;61324;-81
2023/02/06 05:35:40;;;;;;;;;;;;;;;19.48;30.22;102119.78;106017;1286;60801;-82
2023/02/06 05:38:06;;;;;;;;;;;;;;;19.46;30.11;102122.86;105890;1289;72706;-81
2023/02/06 05:40:31;;;;;;;;;;;;;;;19.44;29.95;102122.40;105729;1285;61385;-82
2023/02/06 05:42:58;;;;;;;;;;;;;;;19.43;29.99;102127.27;105924;1286;59553;-82
2023/02/06 05:45:23;;;;;;;;;;;;;;;19.41;29.95;102128.09;106037;1286;61171;-81
2023/02/06 05:47:49;;;;;;;;;;;;;;;19.38;29.87;102126.09;105986;1286;61263;-82
2023/02/06 05:50:15;;;;;;;;;;;;;;;19.36;29.76;102130.96;105849;1285;61250;-82
2023/02/06 05:52:41;;;;;;;;;;;;;;;19.34;29.64;102129.81;105730;1286;59492;-82
2023/02/06 05:55:06;;;;;;;;;;;;;;;19.33;29.70;102127.73;105877;1288;59619;-82
2023/02/06 05:57:32;;;;;;;;;;;;;;;19.29;29.68;102130.38;105843;1285;61272;-82
2023/02/06 05:59:57;;;;;;;;;;;;;;;19.25;29.60;102134.66;105779;1286;59979;-82
2023/02/06 06:02:23;;;;;;;;;;;;;;;19.20;29.76;102135.41;105900;1288;61432;-81
2023/02/06 06:04:48;;;;;;;;;;;;;;;19.16;29.71;102142.19;105958;1286;62196;-81
2023/02/06 06:07:14;;;;;;;;;;;;;;;19.11;29.59;102142.39;105923;1286;61377;-81
2023/02/06 06:09:39;;;;;;;;;;;;;;;19.09;29.60;102147.11;105906;1285;59675;-81
2023/02/06 06:12:05;;;;;;;;;;;;;;;19.06;29.57;102146.67;105922;1286;59353;-82
2023/02/06 06:14:30;;;;;;;;;;;;;;;19.05;29.28;102151.20;105904;1288;61388;-80
2023/02/06 06:16:56;;;;;;;;;;;;;;;19.04;29.31;102153.72;106073;1285;60488;-81
2023/02/06 06:19:21;;;;;;;;;;;;;;;19.04;29.20;102161.42;105917;1286;61808;-82
2023/02/06 06:21:47;;;;;;;;;;;;;;;19.03;28.98;102160.36;105931;1286;61497;-81
2023/02/06 06:24:12;;;;;;;;;;;;;;;19.04;29.01;102161.95;105885;1286;61468;-80
2023/02/06 06:26:38;;;;;;;;;;;;;;;19.06;28.87;102161.70;106023;1285;60489;-80
2023/02/06 06:29:03;;;;;;;;;;;;;;;19.08;28.90;102162.13;106024;1288;59734;-81
2023/02/06 06:31:29;;;;;;;;;;;;;;;19.12;28.78;102164.86;106017;1286;61170;-80
2023/02/06 06:33:54;;;;;;;;;;;;;;;19.14;28.79;102168.85;105916;1286;61412;-81
2023/02/06 06:36:20;;;;;;;;;;;;;;;19.17;28.76;102176.56;105998;1286;61024;-82
2023/02/06 06:38:46;;;;;;;;;;;;;;;19.19;28.86;102175.98;105945;1285;61137;-82
2023/02/06 06:41:11;;;;;;;;;;;;;;;19.20;28.94;102176.99;105893;1288;61336;-82
2023/02/06 06:43:37;;;;;;;;;;;;;;;19.19;28.85;102177.37;105936;1285;62659;-82
2023/02/06 06:46:03;;;;;;;;;;;;;;;19.18;28.88;102180.09;105844;1286;59563;-81
2023/02/06 06:48:29;;;;;;;;;;;;;;;19.17;28.85;102170.70;105962;1285;73444;-81
2023/02/06 06:50:55;;;;;;;;;;;;;;;19.17;28.70;102171.05;105907;1285;59553;-80
2023/02/06 06:53:20;;;;;;;;;;;;;;;19.17;28.73;102169.59;105920;1288;61275;-80
2023/02/06 06:55:46;;;;;;;;;;;;;;;19.19;28.70;102173.45;105660;1286;59958;-81
2023/02/06 06:58:12;;;;;;;;;;;;;;;19.21;28.66;102177.67;105922;1286;61140;-81
2023/02/06 07:00:38;;;;;;;;;;;;;;;19.23;28.91;102182.74;105986;1285;60446;-81
2023/02/06 07:03:04;;;;;;;;;;;;;;;19.27;29.00;102188.11;105532;1285;658258;-80
2023/02/06 07:05:29;;;;;;;;;;;;;;;19.30;29.00;102183.52;105975;1285;59932;-81
2023/02/06 07:07:55;;;;;;;;;;;;;;;19.32;29.04;102185.95;106023;1285;61256;-80
2023/02/06 07:10:20;;;;;;;;;;;;;;;19.34;29.01;102184.61;105784;1286;61242;-80
2023/02/06 07:12:46;;;;;;;;;;;;;;;19.37;29.18;102185.55;105926;1286;62950;-80
2023/02/06 07:15:11;;;;;;;;;;;;;;;19.40;29.14;102189.35;105890;1286;60367;-81
2023/02/06 07:17:37;;;;;;;;;;;;;;;19.44;29.20;102193.83;105864;1286;61361;-80
2023/02/06 07:20:03;;;;;;;;;;;;;;;19.48;29.33;102188.30;106007;1285;61202;-80
2023/02/06 07:22:28;;;;;;;;;;;;;;;19.52;29.43;102190.29;105885;1286;61227;-80
2023/02/06 07:24:54;;;;;;;;;;;;;;;19.56;29.39;102191.73;105742;1284;59381;-80
2023/02/06 07:27:19;;;;;;;;;;;;;;;19.60;29.37;102191.39;105901;1286;61014;-80
2023/02/06 07:29:45;;;;;;;;;;;;;;;19.62;29.42;102195.20;105873;1286;60960;-80
2023/02/06 07:32:10;;;;;;;;;;;;;;;19.65;29.41;102199.75;105879;1286;59754;-80
2023/02/06 07:34:36;;;;;;;;;;;;;;;19.68;29.37;102197.30;105984;1285;61265;-80
2023/02/06 07:37:02;;;;;;;;;;;;;;;19.71;29.36;102195.91;106010;1286;61150;-80
2023/02/06 07:39:28;;;;;;;;;;;;;;;19.73;29.39;102197.77;105906;1286;62085;-80
2023/02/06 07:41:54;;;;;;;;;;;;;;;19.75;29.41;102194.27;105906;1286;61474;-80
2023/02/06 07:44:20;;;;;;;;;;;;;;;19.78;29.43;102196.50;105970;1285;61170;-80
2023/02/06 07:46:46;;;;;;;;;;;;;;;19.80;29.48;102195.90;105993;1285;61356;-81
2023/02/06 07:49:13;;;;;;;;;;;;;;;19.81;29.31;102196.20;105833;1285;59785;-82
2023/02/06 07:51:40;;;;;;;;;;;;;;;19.83;29.29;102196.46;105919;1285;60783;-84
2023/02/06 07:54:05;;;;;;;;;;;;;;;19.85;29.33;102191.77;105902;1286;60997;-83
2023/02/06 07:56:31;;;;;;;;;;;;;;;19.82;29.27;102196.70;105989;1286;61259;-84
2023/02/06 07:58:56;;;;;;;;;;;;;;;19.73;29.01;102201.54;105886;1286;61351;-82
2023/02/06 08:01:22;;;;;;;;;;;;;;;19.58;28.86;102204.48;106021;1286;61203;-82
2023/02/06 08:03:48;;;;;;;;;;;;;;;19.45;29.05;102207.73;105894;1291;60968;-82
2023/02/06 08:06:13;;;;;;;;;;;;;;;19.36;29.03;102203.83;105857;1286;61668;-82
2023/02/06 08:08:39;;;;;;;;;;;;;;;19.30;29.00;102204.25;105936;1286;59704;-82
2023/02/06 08:11:09;;;;;;;;;;;;;;;19.23;28.85;102204.70;105834;1286;60566;-83
2023/02/06 08:13:34;;;;;;;;;;;;;;;19.19;29.00;102208.61;105878;1285;60531;-82
2023/02/06 08:16:09;;;;;;;;;;;;;;;19.17;29.06;102215.82;105974;1286;61145;-83
2023/02/06 08:18:35;;;;;;;;;;;;;;;19.18;28.89;102219.72;105894;1286;73691;-82
2023/02/06 08:21:04;;;;;;;;;;;;;;;19.22;28.93;102223.31;105902;1286;61195;-82
2023/02/06 08:23:30;;;;;;;;;;;;;;;19.27;28.89;102231.31;105840;1285;60779;-81
2023/02/06 08:26:00;;;;;;;;;;;;;;;19.31;28.97;102227.77;105974;1285;62012;-81
2023/02/06 08:28:25;;;;;;;;;;;;;;;19.35;29.08;102225.80;105905;1286;72596;-81
2023/02/06 08:30:51;;;;;;;;;;;;;;;19.39;28.91;102229.75;105901;1286;61361;-81
2023/02/06 08:33:16;;;;;;;;;;;;;;;19.43;28.99;102233.68;106002;1285;61298;-82
2023/02/06 08:35:42;;;;;;;;;;;;;;;19.47;28.99;102231.92;106022;1285;60097;-81
2023/02/06 08:38:07;;;;;;;;;;;;;;;19.51;28.80;102235.85;105899;1286;62580;-81
2023/02/06 08:40:33;;;;;;;;;;;;;;;19.54;28.93;102236.45;105914;1284;71612;-81
2023/02/06 08:42:58;;;;;;;;;;;;;;;19.58;28.80;102242.00;105907;1286;61259;-82
2023/02/06 08:45:24;;;;;;;;;;;;;;;19.60;28.73;102245.13;105865;1286;61329;-82
2023/02/06 08:47:50;;;;;;;;;;;;;;;19.63;28.81;102248.02;105884;1286;59563;-82
2023/02/06 08:50:16;;;;;;;;;;;;;;;19.65;28.84;102256.17;105871;1289;61359;-81
2023/02/06 08:52:41;;;;;;;;;;;;;;;19.67;28.95;102257.89;106033;1285;60079;-82
2023/02/06 08:55:07;;;;;;;;;;;;;;;19.69;28.89;102263.17;105732;1286;74232;-82
2023/02/06 08:57:32;;;;;;;;;;;;;;;19.70;28.89;102264.17;105890;1285;61275;-81
2023/02/06 08:59:58;;;;;;;;;;;;;;;19.71;28.81;102271.29;105947;1286;60390;-82
2023/02/06 09:02:23;;;;;;;;;;;;;;;19.72;28.90;102277.11;105814;1286;61253;-83
2023/02/06 09:04:49;;;;;;;;;;;;;;;19.71;28.88;102280.56;105796;1285;61468;-83
2023/02/06 09:07:14;;;;;;;;;;;;;;;19.66;28.77;102281.50;105867;1284;60214;-83
2023/02/06 09:09:40;;;;;;;;;;;;;;;19.53;28.51;102282.38;106106;1285;61297;-82
2023/02/06 09:12:05;;;;;;;;;;;;;;;19.29;28.30;102285.66;105923;1285;61521;-82
2023/02/06 09:14:31;;;;;;;;;;;;;;;18.95;28.57;102285.23;105870;1286;59650;-83
2023/02/06 09:16:57;;;;;;;;;;;;;;;18.92;28.77;102288.91;105928;1285;61295;-83
2023/02/06 09:19:23;;;;;;;;;;;;;;;18.96;28.78;102288.42;105961;1284;74517;-81
2023/02/06 09:21:49;;;;;;;;;;;;;;;19.01;28.98;102286.98;105865;1285;59254;-81
2023/02/06 09:24:14;;;;;;;;;;;;;;;19.04;29.03;102287.36;105910;1285;60485;-82
2023/02/06 09:26:40;;;;;;;;;;;;;;;19.11;28.79;102291.58;105949;1285;60737;-81
2023/02/06 09:29:07;;;;;;;;;;;;;;;19.17;28.79;102288.31;105995;1285;59548;-83
2023/02/06 09:31:35;;;;;;;;;;;;;;;19.21;28.71;102292.95;105990;1286;61148;-82
2023/02/06 09:34:01;;;;;;;;;;;;;;;19.25;28.90;102292.61;106215;1286;59548;-81
2023/02/06 09:36:29;;;;;;;;;;;;;;;19.28;28.84;102291.45;105868;1286;61215;-81
2023/02/06 09:38:58;;;;;;;;;;;;;;;19.30;28.83;102293.84;105850;1286;74325;-81
2023/02/06 09:41:24;;;;;;;;;;;;;;;19.34;29.08;102285.66;105886;1284;61282;-82
2023/02/06 09:43:59;;;;;;;;;;;;;;;19.39;29.00;102287.25;106043;1285;59772;-82
2023/02/06 09:46:27;;;;;;;;;;;;;;;19.42;29.10;102286.94;106059;1285;72500;-82
2023/02/06 09:48:54;;;;;;;;;;;;;;;19.45;29.17;102286.48;105909;1285;75347;-82
2023/02/06 09:51:39;;;;;;;;;;;;;;;19.47;29.17;102283.35;105863;1285;60827;-82
2023/02/06 09:54:10;;;;;;;;;;;;;;;19.51;29.09;102279.27;105895;1285;61120;-82
2023/02/06 09:56:38;;;;;;;;;;;;;;;19.52;29.15;102273.89;105994;1285;72530;-82
2023/02/06 09:59:04;;;;;;;;;;;;;;;19.51;29.28;102268.56;105910;1285;75532;-82
2023/02/06 10:01:50;;;;;;;;;;;;;;;19.49;29.50;102272.73;106075;1285;59469;-83
2023/02/06 10:04:28;;;;;;;;;;;;;;;19.09;28.79;102264.34;105286;1293;60497;-83
2023/02/06 10:07:03;;;;;;;;;;;;;;;18.70;28.84;102265.45;105178;1294;71211;-83
2023/02/06 10:09:36;;;;;;;;;;;;;;;18.44;28.75;102260.54;105247;1293;74424;-83
2023/02/06 10:12:05;;;;;;;;;;;;;;;18.19;28.83;102267.34;105077;1294;59966;-82
2023/02/06 10:14:37;;;;;;;;;;;;;;;18.19;28.93;102262.88;105236;1295;60032;-82
2023/02/06 10:17:09;;;;;;;;;;;;;;;18.26;29.03;102258.33;105338;1292;73496;-82
2023/02/06 10:19:34;;;;;;;;;;;;;;;18.37;29.05;102254.38;105249;1294;75767;-82
2023/02/06 10:22:02;;;;;;;;;;;;;;;18.46;29.26;102252.80;105284;1293;61461;-82
2023/02/06 10:24:39;;;;;;;;;;;;;;;18.56;29.24;102247.08;105190;1294;61461;-82
2023/02/06 10:27:08;;;;;;;;;;;;;;;18.66;29.19;102249.73;105045;1293;73167;-82
2023/02/06 10:29:35;;;;;;;;;;;;;;;18.71;29.19;102251.70;105080;1294;74647;-82
2023/02/06 10:32:11;;;;;;;;;;;;;;;18.69;29.08;102251.95;105469;1291;61036;-82
2023/02/06 10:34:44;;;;;;;;;;;;;;;18.69;29.28;102246.92;105796;1292;60485;-81
2023/02/06 10:37:31;;;;;;;;;;;;;;;18.71;29.06;102243.86;105790;1295;72525;-82
2023/02/06 10:40:19;;;;;;;;;;;;;;;18.74;29.06;102246.91;105523;1293;74252;-82
2023/02/06 10:43:08;;;;;;;;;;;;;;;18.78;29.08;102249.10;105846;1285;61234;-82
2023/02/06 10:45:33;;;;;;;;;;;;;;;18.81;29.08;102244.54;105340;1291;61358;-82
2023/02/06 10:48:19;;;;;;;;;;;;;;;18.81;29.03;102245.23;105353;1291;61490;-82
2023/02/06 10:50:47;;;;;;;;;;;;;;;18.81;28.93;102239.20;105198;1291;75182;-82
2023/02/06 10:53:19;;;;;;;;;;;;;;;18.80;29.03;102238.33;105356;1291;61301;-82
2023/02/06 10:55:54;;;;;;;;;;;;;;;18.82;28.93;102240.38;105227;1291;62303;-81
2023/02/06 10:58:29;;;;;;;;;;;;;;;18.84;28.98;102237.44;105216;1294;73635;-81
2023/02/06 11:00:55;;;;;;;;;;;;;;;18.76;28.71;102230.80;105469;1292;74500;-82
2023/02/06 11:03:23;;;;;;;;;;;;;;;18.73;28.73;102232.71;105298;1292;59924;-83
2023/02/06 11:05:48;;;;;;;;;;;;;;;18.64;28.76;102239.31;105255;1297;60074;-81
2023/02/06 11:08:19;;;;;;;;;;;;;;;18.56;28.82;102235.84;105191;1291;60550;-81
2023/02/06 11:10:45;;;;;;;;;;;;;;;18.55;29.22;102238.58;105320;1291;75307;-81
2023/02/06 11:13:18;;;;;;;;;;;;;;;18.59;29.22;102239.48;105273;1292;61143;-81
2023/02/06 11:16:02;;;;;;;;;;;;;;;18.65;29.34;102239.59;105418;1291;61059;-81
2023/02/06 11:18:29;;;;;;;;;;;;;;;18.71;29.21;102235.98;105270;1291;73471;-81
2023/02/06 11:20:54;;;;;;;;;;;;;;;18.79;29.33;102238.91;105316;1296;75406;-81
2023/02/06 11:23:21;;;;;;;;;;;;;;;18.85;29.12;102240.46;105827;1286;61253;-81
2023/02/06 11:25:48;;;;;;;;;;;;;;;18.92;29.42;102241.45;105826;1286;61531;-81
2023/02/06 11:28:17;;;;;;;;;;;;;;;19.00;29.38;102241.30;105936;1285;61600;-81
2023/02/06 11:30:52;;;;;;;;;;;;;;;19.07;29.49;102237.84;105874;1285;77009;-81
2023/02/06 11:33:34;;;;;;;;;;;;;;;19.13;29.61;102238.84;106406;1285;60582;-81
2023/02/06 11:36:01;;;;;;;;;;;;;;;19.18;29.69;102241.66;105979;1286;61222;-81
2023/02/06 11:38:28;;;;;;;;;;;;;;;19.27;29.89;102243.29;106029;1285;72392;-81
2023/02/06 11:40:55;;;;;;;;;;;;;;;19.33;29.86;102247.13;106507;1286;74332;-81
2023/02/06 11:43:21;;;;;;;;;;;;;;;19.37;30.12;102239.11;106531;1285;60238;-82
2023/02/06 11:45:47;;;;;;;;;;;;;;;19.42;30.17;102240.16;106526;1285;59013;-82
2023/02/06 11:48:32;;;;;;;;;;;;;;;19.46;30.13;102242.35;106041;1285;61171;-81
2023/02/06 11:50:57;;;;;;;;;;;;;;;19.48;30.18;102243.67;105853;1285;74484;-82
2023/02/06 11:53:22;;;;;;;;;;;;;;;19.48;30.27;102242.05;106002;1284;61285;-82
2023/02/06 11:56:07;;;;;;;;;;;;;;;19.45;30.11;102237.02;105982;1285;59337;-82
2023/02/06 11:58:33;;;;;;;;;;;;;;;19.38;29.98;102236.23;105935;1285;73605;-82
2023/02/06 12:01:03;;;;;;;;;;;;;;;19.16;29.62;102234.45;106019;1288;59489;-82
2023/02/06 12:03:38;;;;;;;;;;;;;;;18.85;29.58;102230.66;106013;1285;59932;-82
2023/02/06 12:06:15;;;;;;;;;;;;;;;18.72;29.66;102239.34;105982;1286;61140;-82
2023/02/06 12:08:51;;;;;;;;;;;;;;;18.58;29.45;102235.79;106014;1286;72543;-82
2023/02/06 12:11:36;;;;;;;;;;;;;;;18.44;29.61;102232.02;106110;1286;74245;-82
2023/02/06 12:14:11;;;;;;;;;;;;;;;18.36;29.39;102235.69;105949;1286;61533;-82
2023/02/06 12:16:37;;;;;;;;;;;;;;;18.27;29.42;102238.71;105960;1286;61026;-82
2023/02/06 12:19:04;;;;;;;;;;;;;;;18.21;29.32;102238.73;105957;1289;61361;-82
2023/02/06 12:21:40;;;;;;;;;;;;;;;18.21;29.41;102235.17;106423;1286;59752;-82
2023/02/06 12:24:13;;;;;;;;;;;;;;;18.23;29.30;102232.79;106617;1285;59884;-82
2023/02/06 12:26:38;;;;;;;;;;;;;;;18.26;29.36;102233.38;105955;1284;62211;-82
2023/02/06 12:29:14;;;;;;;;;;;;;;;18.31;29.31;102236.63;106010;1286;59557;-82